Time;durP1;ratioP1;P1;durP2;ratioP2;P2;SDS_P1;SDS_P2;PMS_P1;PMS_P2;Temp;Humidity;BMP_temperature;BMP_pressure;BME280_temperature;BME280_humidity;BME280_pressure;Samples;Min_cycle;Max_cycle;Signal;HPM_P1;HPM_P2
2023/12/26 00:01:48;;;;;;;4.80;2.95;;;;;;;-2.82;76.00;94128.25;6081867;29;20056;-66
2023/12/26 00:04:54;;;;;;;5.57;3.67;;;;;;;-2.79;75.61;94124.69;6101597;29;20590;-65
2023/12/26 00:07:56;;;;;;;4.90;3.08;;;;;;;-2.68;75.36;94118.94;6101437;29;20036;-66
2023/12/26 00:10:58;;;;;;;5.55;2.97;;;;;;;-2.77;75.35;94115.97;6084080;29;20438;-65
2023/12/26 00:14:00;;;;;;;3.97;2.13;;;;;;;-2.67;75.33;94118.00;6100571;29;20148;-66
2023/12/26 00:17:04;;;;;;;5.97;3.55;;;;;;;-2.78;75.18;94116.84;6101265;29;20036;-65
2023/12/26 00:20:07;;;;;;;5.30;3.53;;;;;;;-2.84;76.03;94114.63;6100344;29;20052;-65
2023/12/26 00:23:10;;;;;;;4.65;3.50;;;;;;;-2.84;76.06;94114.63;6100528;29;20143;-66
2023/12/26 00:26:14;;;;;;;6.25;4.35;;;;;;;-2.86;75.44;94111.34;6100249;29;20047;-66
2023/12/26 00:29:20;;;;;;;7.72;4.85;;;;;;;-2.82;75.44;94117.97;6100813;29;20044;-66
2023/12/26 00:32:24;;;;;;;6.55;4.20;;;;;;;-2.85;75.56;94107.03;6100289;29;20051;-65
2023/12/26 00:35:25;;;;;;;8.50;4.70;;;;;;;-2.91;75.59;94113.34;6100268;29;20546;-66
2023/12/26 00:38:27;;;;;;;6.53;4.30;;;;;;;-2.91;75.51;94123.63;6100727;29;20040;-65
2023/12/26 00:41:32;;;;;;;7.25;4.43;;;;;;;-2.99;75.88;94110.38;6099950;29;20124;-66
2023/12/26 00:44:33;;;;;;;7.63;4.90;;;;;;;-3.30;76.04;94075.25;6099848;29;20432;-66
2023/12/26 00:47:37;;;;;;;7.65;4.50;;;;;;;-3.07;76.63;94112.53;6100069;29;20079;-66
2023/12/26 00:50:41;;;;;;;8.27;4.95;;;;;;;-3.01;76.50;94120.75;6083730;29;20044;-65
2023/12/26 00:53:45;;;;;;;8.77;5.25;;;;;;;-3.06;76.37;94111.63;6083229;29;20450;-65
2023/12/26 00:56:52;;;;;;;6.65;3.97;;;;;;;-3.07;76.42;94115.13;6100326;29;20503;-66
2023/12/26 00:59:56;;;;;;;5.32;3.70;;;;;;;-2.88;75.48;94112.34;6100230;29;20055;-66
2023/12/26 01:02:57;;;;;;;4.82;3.47;;;;;;;-2.77;74.66;94110.00;6099816;29;20060;-66
2023/12/26 01:05:58;;;;;;;5.28;3.30;;;;;;;-2.90;75.15;94120.13;6099641;29;20063;-66
2023/12/26 01:09:02;;;;;;;5.03;3.30;;;;;;;-2.85;74.24;94120.72;6099608;29;20067;-66
2023/12/26 01:12:04;;;;;;;4.63;2.97;;;;;;;-2.91;73.69;94118.50;6082706;29;20056;-66
2023/12/26 01:15:08;;;;;;;3.53;2.80;;;;;;;-2.96;73.83;94118.75;6099986;29;20056;-66
2023/12/26 01:18:11;;;;;;;3.33;1.98;;;;;;;-3.02;73.74;94120.84;6099735;29;20048;-65
2023/12/26 01:21:15;;;;;;;3.63;2.55;;;;;;;-3.11;74.28;94117.03;6099773;29;20068;-65
2023/12/26 01:24:19;;;;;;;4.22;2.88;;;;;;;-3.11;74.25;94121.31;6099329;29;20063;-65
2023/12/26 01:27:20;;;;;;;4.85;3.20;;;;;;;-3.23;74.41;94118.56;6099428;29;20048;-66
2023/12/26 01:30:21;;;;;;;6.15;3.28;;;;;;;-3.27;74.92;94111.91;6082022;29;20438;-65
2023/12/26 01:33:25;;;;;;;7.32;4.13;;;;;;;-3.26;74.95;94115.28;6098953;29;20538;-64
2023/12/26 01:36:29;;;;;;;6.03;3.53;;;;;;;-3.27;75.00;94105.94;6099246;29;20047;-65
2023/12/26 01:39:31;;;;;;;5.68;3.60;;;;;;;-3.32;75.94;94108.75;6069307;29;20052;-65
2023/12/26 01:42:37;;;;;;;6.18;3.45;;;;;;;-3.37;75.33;94113.31;6104206;29;20059;-67
2023/12/26 01:45:41;;;;;;;7.70;4.38;;;;;;;-3.28;75.08;94115.41;6104546;29;20526;-66
2023/12/26 01:48:51;;;;;;;7.80;4.53;;;;;;;-3.32;75.44;94113.06;6103842;29;20059;-65
2023/12/26 01:51:58;;;;;;;7.60;4.35;;;;;;;-3.26;75.61;94108.41;6087297;29;20052;-65
2023/12/26 01:55:04;;;;;;;7.65;4.32;;;;;;;-3.29;75.56;94113.72;6080835;29;20052;-68
2023/12/26 01:58:08;;;;;;;7.40;4.65;;;;;;;-3.35;75.62;94113.25;6080735;29;20056;-65
2023/12/26 02:01:14;;;;;;;7.43;4.82;;;;;;;-3.41;76.03;94114.41;6064152;29;20061;-67
2023/12/26 02:04:18;;;;;;;7.30;4.75;;;;;;;-3.28;75.47;94135.97;6080715;29;20057;-65
2023/12/26 02:07:21;;;;;;;7.97;4.50;;;;;;;-3.36;75.39;94130.41;6079148;29;20445;-67
2023/12/26 02:10:22;;;;;;;9.35;4.63;;;;;;;-3.27;74.88;94127.34;6080284;29;20443;-67
2023/12/26 02:13:24;;;;;;;8.27;4.65;;;;;;;-3.22;75.50;94130.47;6080127;29;20049;-66
2023/12/26 02:16:28;;;;;;;5.82;3.95;;;;;;;-3.33;75.55;94137.13;6079981;29;20400;-65
2023/12/26 02:19:40;;;;;;;7.47;4.22;;;;;;;-3.29;75.50;94134.28;6080064;29;20068;-65
2023/12/26 02:22:45;;;;;;;9.10;5.05;;;;;;;-3.40;75.35;94123.75;6063012;29;20057;-66
2023/12/26 02:25:47;;;;;;;6.53;4.20;;;;;;;-3.43;75.98;94141.94;6079612;29;20048;-67
2023/12/26 02:28:50;;;;;;;8.05;4.65;;;;;;;-3.44;75.84;94120.53;6079667;29;20084;-66
2023/12/26 02:31:55;;;;;;;7.23;3.90;;;;;;;-3.49;75.74;94121.69;6079760;29;20048;-67
2023/12/26 02:35:00;;;;;;;7.40;4.32;;;;;;;-3.39;75.53;94123.69;6079320;29;20045;-66
2023/12/26 02:38:02;;;;;;;7.05;5.00;;;;;;;-3.41;75.68;94124.69;6079652;29;20048;-67
2023/12/26 02:41:03;;;;;;;7.80;4.30;;;;;;;-3.34;75.28;94131.16;6079247;29;20521;-68
2023/12/26 02:44:10;;;;;;;7.07;4.22;;;;;;;-3.53;74.71;94130.50;6063173;29;20048;-67
2023/12/26 02:47:15;;;;;;;5.57;3.40;;;;;;;-3.48;75.33;94141.34;6079210;29;20044;-67
2023/12/26 02:50:18;;;;;;;7.25;3.83;;;;;;;-3.51;75.51;94138.94;6078768;29;20060;-66
2023/12/26 02:53:21;;;;;;;7.25;3.92;;;;;;;-3.45;75.15;94133.50;6090351;29;20498;-66
2023/12/26 02:56:22;;;;;;;4.90;2.88;;;;;;;-3.49;75.61;94147.41;6102962;29;20044;-67
2023/12/26 02:59:26;;;;;;;6.57;4.05;;;;;;;-3.49;74.78;94117.38;6102689;29;20036;-66
2023/12/26 03:02:28;;;;;;;7.13;3.40;;;;;;;-3.48;74.70;94123.34;6102287;29;20060;-66
2023/12/26 03:05:35;;;;;;;5.75;3.70;;;;;;;-3.52;74.65;94137.28;6102525;29;20047;-66
2023/12/26 03:08:39;;;;;;;3.47;2.38;;;;;;;-3.44;74.89;94135.13;6102410;29;20410;-65
2023/12/26 03:11:41;;;;;;;4.00;2.22;;;;;;;-3.48;75.04;94133.63;6085159;29;20139;-67
2023/12/26 03:14:44;;;;;;;4.55;3.45;;;;;;;-3.52;74.84;94163.00;6101766;29;20059;-66
2023/12/26 03:17:49;;;;;;;7.70;3.40;;;;;;;-3.46;74.86;94144.66;6101526;29;20514;-66
2023/12/26 03:20:55;;;;;;;6.63;4.47;;;;;;;-3.53;75.47;94153.63;6101935;29;20047;-66
2023/12/26 03:24:01;;;;;;;5.70;3.50;;;;;;;-3.43;74.91;94153.03;6102205;29;20048;-65
2023/12/26 03:27:03;;;;;;;6.78;3.63;;;;;;;-3.37;74.79;94151.88;6084628;29;20689;-66
2023/12/26 03:30:07;;;;;;;;;;;;;;;-3.21;75.01;94165.56;6102432;29;20503;-66
2023/12/26 03:33:14;;;;;;;4.85;2.88;;;;;;;-3.46;75.23;94178.09;6101726;29;19923;-66
2023/12/26 03:36:15;;;;;;;6.88;4.53;;;;;;;-3.56;75.76;94169.22;6085013;29;20052;-66
2023/12/26 03:39:20;;;;;;;9.98;4.35;;;;;;;-3.52;75.92;94204.13;6100830;29;20064;-66
2023/12/26 03:42:21;;;;;;;8.38;5.03;;;;;;;-3.42;75.71;94200.16;6101537;29;20143;-66
2023/12/26 03:45:26;;;;;;;4.22;2.72;;;;;;;-3.38;75.50;94196.50;6101568;29;20044;-66
2023/12/26 03:48:33;;;;;;;6.40;3.75;;;;;;;-3.38;75.30;94206.78;6085154;29;20044;-68
2023/12/26 03:51:35;;;;;;;5.95;3.42;;;;;;;-3.51;75.89;94229.75;6100758;29;20211;-67
2023/12/26 03:54:37;;;;;;;4.25;3.03;;;;;;;-3.55;76.54;94242.84;6083912;29;20048;-65
2023/12/26 03:57:44;;;;;;;5.05;3.17;;;;;;;-3.55;76.33;94224.84;6084169;29;20064;-67
2023/12/26 04:00:46;;;;;;;4.57;2.80;;;;;;;-3.64;76.72;94257.81;6100629;29;20180;-66
2023/12/26 04:03:50;;;;;;;;;;;;;;;-3.43;75.59;94244.75;6100636;29;20059;-66
2023/12/26 04:06:52;;;;;;;5.13;3.13;;;;;;;-3.41;75.74;94245.53;6101308;29;19923;-67
2023/12/26 04:09:58;;;;;;;4.60;2.50;;;;;;;-3.56;75.96;94269.47;6100294;29;20114;-66
2023/12/26 04:13:00;;;;;;;4.25;2.30;;;;;;;-3.47;75.66;94262.09;6100369;29;20048;-66
2023/12/26 04:16:06;;;;;;;2.65;2.15;;;;;;;-3.33;75.53;94281.94;6100383;29;20051;-66
2023/12/26 04:19:10;;;;;;;3.08;1.52;;;;;;;-3.31;75.10;94275.00;6101138;29;20075;-67
2023/12/26 04:22:16;;;;;;;4.20;2.10;;;;;;;-3.29;75.16;94274.91;6101368;29;20047;-66
2023/12/26 04:25:22;;;;;;;2.88;1.90;;;;;;;-3.30;74.50;94271.50;6100945;29;20044;-67
2023/12/26 04:28:33;;;;;;;2.50;1.65;;;;;;;-3.45;74.88;94286.00;6100933;29;20084;-67
2023/12/26 04:31:37;;;;;;;3.30;2.10;;;;;;;-3.53;75.27;94274.44;6084039;29;20048;-67
2023/12/26 04:34:44;;;;;;;2.53;1.90;;;;;;;-3.38;74.62;94281.34;6100797;29;20052;-66
2023/12/26 04:37:48;;;;;;;3.28;1.77;;;;;;;-3.41;74.98;94276.38;6100546;29;20043;-66
2023/12/26 04:40:49;;;;;;;3.58;1.58;;;;;;;-3.33;74.83;94287.09;6099659;29;20475;-67
2023/12/26 04:43:56;;;;;;;2.67;2.20;;;;;;;-3.31;74.83;94299.84;6100448;29;20047;-66
2023/12/26 04:46:59;;;;;;;3.45;2.20;;;;;;;-3.26;74.88;94314.13;6100401;29;20044;-66
2023/12/26 04:50:04;;;;;;;3.00;2.25;;;;;;;-3.33;74.97;94292.22;6100167;29;20040;-67
2023/12/26 04:53:07;;;;;;;4.07;2.20;;;;;;;-3.45;75.42;94300.59;6099468;29;20580;-67
2023/12/26 04:56:15;;;;;;;3.35;2.60;;;;;;;-3.24;74.53;94312.31;6100119;29;20482;-67
2023/12/26 04:59:18;;;;;;;3.88;2.58;;;;;;;-3.21;74.92;94313.91;6099964;29;20336;-66
2023/12/26 05:02:25;;;;;;;4.32;2.55;;;;;;;-3.11;74.76;94306.53;6099664;29;20059;-68
2023/12/26 05:05:26;;;;;;;3.58;2.53;;;;;;;-2.99;74.50;94326.47;6099783;29;20043;-68
2023/12/26 05:08:31;;;;;;;3.65;2.30;;;;;;;-3.03;74.26;94324.97;6099857;29;20067;-67
2023/12/26 05:11:32;;;;;;;6.75;3.45;;;;;;;-3.18;74.50;94337.72;6099167;29;20052;-66
2023/12/26 05:14:36;;;;;;;5.47;2.80;;;;;;;-3.04;74.42;94343.88;6098645;29;20138;-67
2023/12/26 05:17:38;;;;;;;4.72;2.95;;;;;;;-3.05;74.78;94331.94;6098887;29;20052;-67
2023/12/26 05:20:42;;;;;;;5.78;3.50;;;;;;;-2.97;74.49;94338.34;6098889;29;20059;-67
2023/12/26 05:23:43;;;;;;;5.50;3.55;;;;;;;-2.97;74.48;94329.81;6099667;29;20047;-66
2023/12/26 05:26:45;;;;;;;7.72;3.88;;;;;;;-2.97;74.83;94329.81;6082378;29;20585;-67
2023/12/26 05:29:50;;;;;;;5.13;3.72;;;;;;;-2.87;74.57;94330.97;6098172;29;20060;-67
2023/12/26 05:32:52;;;;;;;6.25;3.70;;;;;;;-2.83;75.01;94324.75;6099194;29;20056;-67
2023/12/26 05:35:55;;;;;;;5.47;3.17;;;;;;;-2.62;74.24;94355.41;6082388;29;20647;-68
2023/12/26 05:39:00;;;;;;;3.70;2.20;;;;;;;-2.52;73.65;94330.81;6099615;29;20048;-67
2023/12/26 05:42:04;;;;;;;4.53;2.72;;;;;;;-2.80;74.66;94316.00;6099459;29;20052;-66
2023/12/26 05:45:06;;;;;;;3.03;1.38;;;;;;;-2.61;74.67;94333.88;6099264;29;20040;-67
2023/12/26 05:48:08;;;;;;;4.65;2.72;;;;;;;-2.47;73.62;94333.97;6082051;29;20048;-66
2023/12/26 05:51:10;;;;;;;3.42;1.88;;;;;;;-2.53;73.42;94339.44;6099889;29;20047;-66
2023/12/26 05:54:14;;;;;;;3.45;1.77;;;;;;;-2.42;73.86;94352.56;6099397;29;20040;-67
2023/12/26 05:57:25;;;;;;;2.25;1.67;;;;;;;-2.35;73.82;94348.75;6098801;29;20048;-68
2023/12/26 06:00:29;;;;;;;2.88;1.90;;;;;;;-2.34;73.67;94342.69;6098480;29;20048;-66
2023/12/26 06:03:33;;;;;;;3.63;2.15;;;;;;;-2.28;73.38;94344.91;6098424;29;20507;-66
2023/12/26 06:06:38;;;;;;;2.33;1.02;;;;;;;-2.18;73.21;94349.56;6099223;29;20051;-67
2023/12/26 06:09:39;;;;;;;2.78;1.70;;;;;;;-2.03;72.74;94356.44;6099151;29;20055;-66
2023/12/26 06:12:43;;;;;;;2.83;1.98;;;;;;;-2.07;72.58;94363.53;6099390;29;20044;-66
2023/12/26 06:15:47;;;;;;;2.45;1.67;;;;;;;-1.86;71.37;94356.31;6099235;29;20048;-67
2023/12/26 06:18:51;;;;;;;2.35;1.60;;;;;;;-1.94;71.55;94384.28;6098911;29;20055;-67
2023/12/26 06:21:55;;;;;;;1.90;1.25;;;;;;;-1.76;71.23;94366.94;6099083;29;20048;-66
2023/12/26 06:24:57;;;;;;;1.02;0.68;;;;;;;-1.67;70.40;94370.72;6099420;29;20059;-67
2023/12/26 06:28:02;;;;;;;2.47;1.67;;;;;;;-1.74;71.43;94374.59;6103336;29;20403;-66
2023/12/26 06:31:03;;;;;;;2.75;1.77;;;;;;;-1.58;71.20;94386.53;6102944;29;20059;-67
2023/12/26 06:34:07;;;;;;;1.58;1.13;;;;;;;-1.43;70.88;94395.13;6102667;29;20072;-66
2023/12/26 06:37:11;;;;;;;2.83;1.88;;;;;;;-1.46;71.51;94395.28;6102476;29;20116;-67
2023/12/26 06:40:13;;;;;;;3.25;1.83;;;;;;;-1.44;70.99;94378.00;6102855;29;20055;-66
2023/12/26 06:43:14;;;;;;;3.17;2.13;;;;;;;-1.25;71.43;94382.91;6102439;29;20060;-67
2023/12/26 06:46:17;;;;;;;1.92;1.50;;;;;;;-1.24;71.44;94394.06;6101491;29;20075;-66
2023/12/26 06:49:19;;;;;;;2.67;1.95;;;;;;;-1.25;70.87;94388.06;6085338;29;20055;-67
2023/12/26 06:52:26;;;;;;;2.13;1.65;;;;;;;-1.25;70.74;94389.81;6103012;29;20039;-66
2023/12/26 06:55:27;;;;;;;2.25;1.67;;;;;;;-1.13;70.85;94397.69;6102359;29;20076;-67
2023/12/26 06:58:34;;;;;;;2.00;1.38;;;;;;;-0.95;70.31;94372.53;6103001;29;20454;-67
2023/12/26 07:01:35;;;;;;;3.28;1.90;;;;;;;-0.94;70.69;94384.50;6102135;29;20143;-66
2023/12/26 07:04:42;;;;;;;2.28;1.23;;;;;;;-0.77;70.11;94390.41;6102655;29;20048;-67
2023/12/26 07:07:43;;;;;;;2.30;1.77;;;;;;;-0.87;69.76;94384.16;6085453;29;20059;-70
2023/12/26 07:10:46;;;;;;;1.83;1.50;;;;;;;-0.83;70.15;94383.03;6102431;29;20125;-67
2023/12/26 07:13:48;;;;;;;2.70;1.57;;;;;;;-0.66;69.28;94382.84;6101898;29;20052;-67
2023/12/26 07:16:49;;;;;;;3.78;2.10;;;;;;;-0.81;69.12;94388.94;6101640;29;20059;-69
2023/12/26 07:19:53;;;;;;;4.53;1.58;;;;;;;-0.76;68.93;94392.09;6102513;29;20044;-67
2023/12/26 07:22:55;;;;;;;3.35;2.08;;;;;;;-0.75;69.36;94401.47;6101139;29;20064;-66
2023/12/26 07:25:57;;;;;;;2.47;1.75;;;;;;;-0.89;70.55;94416.97;6101619;29;20052;-66
2023/12/26 07:29:05;;;;;;;3.35;2.22;;;;;;;-0.84;71.27;94423.50;6102192;29;20071;-67
2023/12/26 07:32:12;;;;;;;2.10;1.33;;;;;;;-0.65;71.65;94407.75;6101729;29;20063;-67
2023/12/26 07:35:19;;;;;;;2.47;2.15;;;;;;;-0.21;70.37;94411.13;6101404;29;20052;-66
2023/12/26 07:38:24;;;;;;;2.92;1.27;;;;;;;0.94;68.38;94406.34;6100336;29;20524;-66
2023/12/26 07:41:27;;;;;;;2.95;1.70;;;;;;;1.07;66.66;94386.44;6101622;29;20051;-66
2023/12/26 07:44:31;;;;;;;3.45;1.75;;;;;;;0.60;67.35;94403.38;6101908;29;20048;-65
2023/12/26 07:47:36;;;;;;;3.50;2.00;;;;;;;0.28;68.18;94388.16;6102084;29;20486;-67
2023/12/26 07:50:37;;;;;;;2.45;2.05;;;;;;;0.15;68.30;94395.88;6100981;29;20074;-66
2023/12/26 07:53:41;;;;;;;1.25;1.08;;;;;;;-0.12;67.87;94401.03;6100983;29;20056;-65
2023/12/26 07:56:42;;;;;;;2.80;1.55;;;;;;;-0.24;69.14;94396.63;6101090;29;20052;-66
2023/12/26 07:59:44;;;;;;;2.22;1.58;;;;;;;-0.07;68.73;94393.81;6100872;29;20051;-66
2023/12/26 08:02:50;;;;;;;2.85;2.30;;;;;;;-0.22;68.90;94410.28;6075545;29;20697;-65
2023/12/26 08:05:51;;;;;;;3.42;2.03;;;;;;;-0.09;68.12;94402.59;6075656;29;20049;-66
2023/12/26 08:08:53;;;;;;;3.00;2.00;;;;;;;-0.17;67.97;94392.75;6077128;29;20048;-66
2023/12/26 08:11:57;;;;;;;3.20;2.35;;;;;;;-0.07;68.16;94414.50;6077527;29;20057;-65
2023/12/26 08:14:59;;;;;;;2.38;1.55;;;;;;;0.49;67.68;94401.47;6076668;29;20045;-65
2023/12/26 08:18:04;;;;;;;2.35;1.65;;;;;;;1.18;66.05;94409.84;6077301;29;20085;-65
2023/12/26 08:21:11;;;;;;;1.60;1.45;;;;;;;1.53;65.90;94417.00;6077375;29;20044;-65
2023/12/26 08:24:17;;;;;;;2.42;1.67;;;;;;;3.00;61.39;94398.69;6076574;29;20048;-66
2023/12/26 08:27:22;;;;;;;2.63;1.60;;;;;;;3.41;59.94;94418.13;6076962;29;20057;-65
2023/12/26 08:30:27;;;;;;;2.22;1.25;;;;;;;3.73;60.29;94412.22;6075650;29;20052;-65
2023/12/26 08:33:31;;;;;;;3.67;1.80;;;;;;;3.32;60.22;94404.03;6076647;29;20056;-64
2023/12/26 08:36:35;;;;;;;2.85;1.85;;;;;;;3.77;58.33;94429.25;6077416;29;20044;-64
2023/12/26 08:39:37;;;;;;;2.05;1.67;;;;;;;4.00;57.31;94430.91;6076987;29;20188;-64
2023/12/26 08:42:42;;;;;;;2.28;1.70;;;;;;;2.60;57.43;94427.56;6076356;29;20059;-65
2023/12/26 08:45:43;;;;;;;2.67;1.50;;;;;;;1.97;60.14;94423.44;6076562;29;20430;-65
2023/12/26 08:48:44;;;;;;;3.33;1.90;;;;;;;1.26;60.74;94412.75;6076601;29;20045;-64
2023/12/26 08:51:48;;;;;;;1.83;1.23;;;;;;;1.13;61.91;94411.91;6076898;29;20048;-65
2023/12/26 08:54:51;;;;;;;3.05;1.42;;;;;;;1.48;60.69;94412.13;6076577;29;20060;-65
2023/12/26 08:57:52;;;;;;;1.08;0.82;;;;;;;2.02;60.11;94432.56;6076286;29;20136;-65
2023/12/26 09:00:57;;;;;;;2.33;1.40;;;;;;;2.48;58.51;94434.47;6076661;29;20107;-67
2023/12/26 09:04:00;;;;;;;1.50;1.05;;;;;;;2.26;58.23;94436.94;6099123;29;20052;-66
2023/12/26 09:07:03;;;;;;;2.03;1.60;;;;;;;2.23;58.90;94438.00;6099364;29;20075;-65
2023/12/26 09:10:06;;;;;;;1.90;1.40;;;;;;;2.74;57.09;94443.91;6099232;29;20048;-66
2023/12/26 09:13:07;;;;;;;1.25;1.15;;;;;;;2.21;57.08;94463.22;6099385;29;20048;-66
2023/12/26 09:16:08;;;;;;;2.00;1.23;;;;;;;1.12;60.18;94436.16;6099115;29;20055;-66
2023/12/26 09:19:11;;;;;;;4.03;1.30;;;;;;;0.46;61.18;94463.78;6099219;29;20052;-67
2023/12/26 09:22:13;;;;;;;1.25;1.00;;;;;;;-0.01;62.89;94455.47;6098932;29;20493;-65
2023/12/26 09:25:18;;;;;;;1.02;0.93;;;;;;;-0.23;62.73;94465.47;6099751;29;20044;-65
2023/12/26 09:28:22;;;;;;;1.75;1.02;;;;;;;-0.50;63.88;94468.81;6099948;29;20506;-66
2023/12/26 09:31:28;;;;;;;2.08;1.20;;;;;;;-0.51;64.32;94472.31;6099727;29;20400;-66
2023/12/26 09:34:32;;;;;;;1.20;1.10;;;;;;;-0.64;64.84;94471.38;6099094;29;20052;-66
2023/12/26 09:37:38;;;;;;;1.80;1.45;;;;;;;-0.95;64.67;94483.50;6098948;29;20075;-67
2023/12/26 09:40:39;;;;;;;1.80;1.05;;;;;;;-1.05;65.50;94474.63;6099219;29;20044;-66
2023/12/26 09:43:41;;;;;;;2.50;1.55;;;;;;;-1.15;67.77;94482.09;6098918;29;20414;-66
2023/12/26 09:46:42;;;;;;;1.95;1.20;;;;;;;-1.24;69.96;94476.63;6099013;29;20056;-67
2023/12/26 09:49:45;;;;;;;1.75;1.45;;;;;;;-1.21;70.23;94466.13;6098396;29;20541;-67
2023/12/26 09:52:59;;;;;;;1.55;1.20;;;;;;;-1.34;70.80;94475.47;6098585;29;20427;-66
2023/12/26 09:56:02;;;;;;;1.92;1.25;;;;;;;-1.44;70.23;94476.00;6098773;29;20143;-66
2023/12/26 09:59:08;;;;;;;1.35;1.25;;;;;;;-1.56;70.54;94487.00;6099442;29;20044;-67
2023/12/26 10:02:12;;;;;;;1.67;1.42;;;;;;;-1.62;70.41;94492.50;6102808;29;20048;-66
2023/12/26 10:05:14;;;;;;;3.22;1.80;;;;;;;-1.69;70.37;94497.16;6103426;29;20071;-67
2023/12/26 10:08:18;;;;;;;2.58;1.95;;;;;;;-1.74;70.20;94500.91;6103519;29;20529;-67
2023/12/26 10:11:20;;;;;;;;;;;;;;;-1.68;70.12;94522.03;6103651;29;20100;-67
2023/12/26 10:14:28;;;;;;;;;;;;;;;-1.77;69.96;94511.38;6104484;29;19923;-66
2023/12/26 10:17:30;;;;;;;1.73;1.42;;;;;;;-1.96;69.90;94524.44;6086317;29;19918;-66
2023/12/26 10:20:34;;;;;;;2.55;1.80;;;;;;;-2.00;70.46;94513.47;6103462;29;20044;-66
2023/12/26 10:23:35;;;;;;;2.88;1.83;;;;;;;-2.13;70.80;94525.31;6102785;29;20060;-67
2023/12/26 10:26:40;;;;;;;2.40;1.40;;;;;;;-2.00;70.87;94518.63;6102349;29;20101;-66
2023/12/26 10:29:52;;;;;;;2.22;1.60;;;;;;;-1.99;69.56;94520.25;6103049;29;20078;-67
2023/12/26 10:33:00;;;;;;;1.98;1.42;;;;;;;-2.04;69.66;94535.13;6103037;29;20059;-67
2023/12/26 10:36:04;;;;;;;1.38;1.27;;;;;;;-2.16;70.01;94539.19;6102775;29;20052;-68
2023/12/26 10:39:05;;;;;;;;;;;;;;;-2.18;69.16;94540.19;6102868;29;20545;-67
2023/12/26 10:42:08;;;;;;;0.98;0.75;;;;;;;-2.44;69.64;94539.78;6102410;29;19923;-67
2023/12/26 10:45:17;;;;;;;1.73;1.05;;;;;;;-2.58;70.06;94522.47;6102289;29;20059;-68
2023/12/26 10:48:24;;;;;;;2.53;1.77;;;;;;;-2.68;70.01;94541.88;6102908;29;20048;-68
2023/12/26 10:51:32;;;;;;;1.02;0.93;;;;;;;-2.72;70.05;94546.38;6102980;29;20052;-67
2023/12/26 10:54:38;;;;;;;1.95;1.55;;;;;;;-2.86;70.51;94559.09;6102319;29;20062;-68
2023/12/26 10:57:42;;;;;;;3.85;1.70;;;;;;;-2.99;71.53;94563.16;6102779;29;20056;-68
2023/12/26 11:00:49;;;;;;;2.95;1.02;;;;;;;-3.12;71.27;94557.78;6102162;29;20044;-68
2023/12/26 11:03:55;;;;;;;1.60;1.50;;;;;;;-3.05;71.48;94586.63;6077880;29;20076;-68
2023/12/26 11:06:56;;;;;;;1.43;1.10;;;;;;;-3.02;71.35;94573.63;6079337;29;20135;-68
2023/12/26 11:10:02;;;;;;;2.00;1.60;;;;;;;-3.10;71.67;94578.28;6078916;29;20472;-68
2023/12/26 11:13:08;;;;;;;6.90;1.65;;;;;;;-3.20;71.22;94601.88;6078654;29;20068;-67
2023/12/26 11:16:13;;;;;;;1.70;1.33;;;;;;;-3.31;72.11;94591.28;6079156;29;20049;-67
2023/12/26 11:19:19;;;;;;;1.70;1.35;;;;;;;-3.31;71.88;94605.84;6062282;29;20049;-68
2023/12/26 11:22:21;;;;;;;;;;;;;;;-3.24;71.41;94604.66;6078960;29;20054;-66
2023/12/26 11:25:24;;;;;;;1.65;1.40;;;;;;;-3.36;71.79;94624.09;6078859;29;19923;-68
2023/12/26 11:28:28;;;;;;;2.45;2.00;;;;;;;-3.97;72.25;94580.63;6076956;29;20056;-67
2023/12/26 11:31:30;;;;;;;2.45;1.40;;;;;;;-3.50;71.89;94647.03;6078119;29;20070;-68
2023/12/26 11:34:32;;;;;;;2.00;1.80;;;;;;;-3.71;72.46;94625.69;6078379;29;20056;-67
2023/12/26 11:37:33;;;;;;;2.22;1.85;;;;;;;-3.69;72.05;94640.13;6078562;29;20048;-68
2023/12/26 11:40:35;;;;;;;1.15;0.75;;;;;;;-3.85;71.92;94628.88;6077367;29;20045;-67
2023/12/26 11:43:37;;;;;;;1.73;1.48;;;;;;;-3.77;71.59;94647.34;6076759;29;20057;-68
2023/12/26 11:46:42;;;;;;;3.35;2.25;;;;;;;-3.89;71.33;94653.88;6077946;29;20523;-68
2023/12/26 11:49:48;;;;;;;2.17;1.40;;;;;;;-3.88;70.85;94645.28;6077817;29;20047;-67
2023/12/26 11:52:51;;;;;;;1.85;1.25;;;;;;;-3.90;70.28;94643.69;6078366;29;20045;-67
2023/12/26 11:55:57;;;;;;;3.03;1.52;;;;;;;-3.96;70.25;94652.50;6078107;29;20048;-68
2023/12/26 11:59:01;;;;;;;1.65;1.15;;;;;;;-3.96;70.30;94651.63;6078235;29;20511;-68
2023/12/26 12:02:03;;;;;;;2.17;1.65;;;;;;;-4.09;70.13;94661.63;6085865;29;20131;-67
2023/12/26 12:05:06;;;;;;;1.70;1.33;;;;;;;-4.06;70.26;94652.03;6100427;29;20048;-67
2023/12/26 12:08:16;;;;;;;0.97;0.80;;;;;;;-4.06;70.41;94670.03;6083867;29;20151;-67
2023/12/26 12:11:19;;;;;;;1.73;1.25;;;;;;;-3.94;70.12;94671.22;6100639;29;20471;-68
2023/12/26 12:14:20;;;;;;;1.43;1.20;;;;;;;-3.90;69.95;94666.81;6083587;29;20499;-68
2023/12/26 12:17:22;;;;;;;1.95;1.48;;;;;;;-3.90;69.60;94671.94;6101003;29;20046;-68
2023/12/26 12:20:23;;;;;;;1.95;1.70;;;;;;;-3.93;70.19;94682.34;6100871;29;20044;-67
2023/12/26 12:23:25;;;;;;;1.63;1.42;;;;;;;-3.92;70.88;94678.88;6082901;29;20047;-68
2023/12/26 12:26:48;;;;;;;;;;;;;;;-3.92;71.17;94689.16;6084599;29;20050;-67
2023/12/26 12:29:59;;;;;;;2.60;1.05;;;;;;;-4.01;71.69;94694.69;6100978;29;20408;-67
2023/12/26 12:33:21;;;;;;;1.60;1.20;;;;;;;-3.93;71.42;94713.19;6100755;29;20052;-67
2023/12/26 12:36:28;;;;;;;1.33;1.17;;;;;;;-4.01;70.96;94720.38;6083525;29;20050;-67
2023/12/26 12:39:31;;;;;;;1.83;1.27;;;;;;;-4.09;70.62;94724.09;6100601;29;20429;-68
2023/12/26 12:42:38;;;;;;;1.65;1.13;;;;;;;-3.91;69.42;94731.91;6100494;29;20043;-67
2023/12/26 12:45:39;;;;;;;1.20;1.10;;;;;;;-3.91;69.54;94735.31;6099988;29;20051;-67
2023/12/26 12:48:43;;;;;;;1.35;0.98;;;;;;;-3.85;70.03;94721.38;6083286;29;20048;-67
2023/12/26 12:51:50;;;;;;;3.65;1.33;;;;;;;-3.84;70.75;94720.47;6100658;29;20055;-67
2023/12/26 12:54:51;;;;;;;1.63;1.40;;;;;;;-4.00;71.18;94732.31;6099638;29;20052;-67
2023/12/26 12:57:59;;;;;;;1.75;1.50;;;;;;;-4.04;72.42;94720.50;6099479;29;20048;-67
2023/12/26 13:01:02;;;;;;;2.20;1.77;;;;;;;-4.09;72.63;94736.09;6082808;29;20048;-68
2023/12/26 13:04:07;;;;;;;1.23;1.02;;;;;;;-4.11;72.64;94736.16;6099294;29;20422;-67
2023/12/26 13:07:11;;;;;;;2.38;1.60;;;;;;;-4.19;72.52;94738.22;6099868;29;20036;-67
2023/12/26 13:10:14;;;;;;;1.60;1.50;;;;;;;-4.20;72.26;94736.53;6100076;29;20051;-67
2023/12/26 13:13:15;;;;;;;2.35;1.42;;;;;;;-4.22;72.01;94747.78;6099849;29;20044;-67
2023/12/26 13:16:20;;;;;;;1.55;1.25;;;;;;;-4.08;72.51;94754.03;6099863;29;20055;-68
2023/12/26 13:19:27;;;;;;;1.42;1.33;;;;;;;-3.89;73.58;94771.22;6100250;29;20056;-67
2023/12/26 13:22:28;;;;;;;1.20;1.10;;;;;;;-3.93;74.36;94779.97;6099644;29;20094;-67
2023/12/26 13:25:38;;;;;;;2.65;1.10;;;;;;;-3.90;75.07;94769.56;6099760;29;20044;-67
2023/12/26 13:28:42;;;;;;;2.78;1.80;;;;;;;-3.99;76.17;94769.94;6083348;29;20172;-66
2023/12/26 13:31:43;;;;;;;1.13;1.00;;;;;;;-3.85;75.58;94773.63;6099479;29;20040;-67
2023/12/26 13:34:47;;;;;;;2.20;1.58;;;;;;;-3.92;75.44;94761.09;6081372;29;20048;-67
2023/12/26 13:37:51;;;;;;;2.72;1.33;;;;;;;-3.80;75.01;94770.00;6099490;29;20040;-67
2023/12/26 13:40:57;;;;;;;1.63;1.00;;;;;;;-3.78;74.06;94787.03;6098920;29;20044;-69
2023/12/26 13:43:58;;;;;;;2.08;1.33;;;;;;;-3.74;72.67;94803.97;6098939;29;20067;-67
2023/12/26 13:47:02;;;;;;;2.35;1.73;;;;;;;-3.76;72.38;94787.81;6099348;29;20415;-68
2023/12/26 13:50:06;;;;;;;1.48;1.15;;;;;;;-3.77;72.26;94786.13;6099717;29;20501;-67
2023/12/26 13:53:09;;;;;;;2.00;1.38;;;;;;;-3.65;71.57;94793.31;6099609;29;20589;-67
2023/12/26 13:56:16;;;;;;;2.53;1.80;;;;;;;-3.86;71.71;94786.50;6099226;29;20051;-68
2023/12/26 13:59:21;;;;;;;2.35;1.52;;;;;;;-3.72;70.00;94799.63;6099195;29;20048;-68
2023/12/26 14:02:29;;;;;;;1.60;0.98;;;;;;;-3.69;69.18;94824.34;6099638;29;20574;-68
2023/12/26 14:05:36;;;;;;;1.95;1.20;;;;;;;-3.79;68.73;94821.34;6099591;29;20040;-68
2023/12/26 14:08:40;;;;;;;1.45;1.15;;;;;;;-3.68;67.03;94819.16;6098823;29;20634;-68
2023/12/26 14:11:42;;;;;;;0.77;0.70;;;;;;;-3.77;66.70;94810.97;6098707;29;20107;-68
2023/12/26 14:14:46;;;;;;;1.75;1.30;;;;;;;-3.72;66.00;94804.75;6098493;29;20188;-67
2023/12/26 14:17:50;;;;;;;1.77;1.02;;;;;;;-3.81;66.14;94812.84;6098731;29;20074;-68
2023/12/26 14:20:52;;;;;;;;;;;;;;;-3.73;66.06;94807.41;6082338;29;20068;-68
2023/12/26 14:23:58;;;;;;;1.90;1.15;;;;;;;-3.84;66.13;94825.84;6098911;29;20043;-67
2023/12/26 14:27:04;;;;;;;1.17;1.10;;;;;;;-3.98;66.54;94812.72;6098599;29;20422;-67
2023/12/26 14:30:09;;;;;;;0.93;0.73;;;;;;;-3.99;68.03;94813.59;6098582;29;20052;-68